Time;durP1;ratioP1;P1;durP2;ratioP2;P2;SDS_P1;SDS_P2;PMS_P1;PMS_P2;Temp;Humidity;BMP_temperature;BMP_pressure;BME280_temperature;BME280_humidity;BME280_pressure;Samples;Min_cycle;Max_cycle;Signal;HPM_P1;HPM_P2
2022/03/13 00:00:36;;;;;;;11.50;7.43;;;;;;;1.35;33.60;101671.03;7399090;19;20026;-68
2022/03/13 00:03:04;;;;;;;12.25;7.30;;;;;;;1.33;33.29;101666.66;7394678;19;20015;-68
2022/03/13 00:05:35;;;;;;;10.90;7.57;;;;;;;1.30;33.19;101668.34;7395612;19;20036;-68
2022/03/13 00:08:04;;;;;;;11.20;7.93;;;;;;;1.28;33.26;101666.53;7398806;19;20021;-66
2022/03/13 00:10:35;;;;;;;12.25;7.53;;;;;;;1.24;33.48;101665.56;7398677;19;20090;-66
2022/03/13 00:13:03;;;;;;;11.23;7.70;;;;;;;1.22;33.18;101662.03;7396266;19;20045;-67
2022/03/13 00:15:43;;;;;;;12.48;8.77;;;;;;;1.19;33.54;101663.63;7395661;19;20015;-68
2022/03/13 00:18:11;;;;;;;18.15;9.77;;;;;;;1.17;33.31;101666.19;7398302;19;20018;-67
2022/03/13 00:20:40;;;;;;;12.55;8.60;;;;;;;1.14;33.56;101655.75;7398000;19;20028;-68
2022/03/13 00:23:08;;;;;;;12.07;8.35;;;;;;;1.08;33.57;101643.50;7396824;19;20019;-68
2022/03/13 00:25:39;;;;;;;11.75;7.55;;;;;;;1.10;33.63;101661.63;7397262;19;20095;-66
2022/03/13 00:28:07;;;;;;;10.88;7.90;;;;;;;1.06;33.49;101667.53;7397881;19;20018;-67
2022/03/13 00:30:36;;;;;;;12.00;7.95;;;;;;;1.02;33.60;101671.75;7395208;19;20082;-67
2022/03/13 00:33:04;;;;;;;10.52;7.40;;;;;;;1.00;33.60;101681.16;7395619;19;20022;-68
2022/03/13 00:35:32;;;;;;;11.90;8.05;;;;;;;0.96;33.90;101676.69;7396821;19;20015;-68
2022/03/13 00:38:01;;;;;;;13.85;8.18;;;;;;;0.91;33.93;101674.00;7396813;19;20378;-68
2022/03/13 00:40:30;;;;;;;13.23;8.13;;;;;;;0.86;33.76;101672.97;7396569;19;20502;-68
2022/03/13 00:43:01;;;;;;;11.07;7.35;;;;;;;0.83;34.06;101670.25;7395861;19;20032;-68
2022/03/13 00:45:29;;;;;;;14.30;7.70;;;;;;;0.80;34.19;101672.75;7397148;19;20074;-68
2022/03/13 00:47:58;;;;;;;13.13;7.63;;;;;;;0.76;34.36;101671.78;7394158;19;20023;-68
2022/03/13 00:50:26;;;;;;;13.65;7.43;;;;;;;0.73;34.46;101665.63;7396604;19;20015;-69
2022/03/13 00:52:57;;;;;;;11.07;7.63;;;;;;;0.68;34.45;101674.91;7394063;19;20492;-67
2022/03/13 00:55:25;;;;;;;11.63;7.60;;;;;;;0.62;34.73;101673.00;7396479;19;20021;-67
2022/03/13 00:57:53;;;;;;;10.35;7.50;;;;;;;0.56;34.99;101670.22;7394314;19;20026;-68
2022/03/13 01:00:24;;;;;;;11.77;8.13;;;;;;;0.49;35.13;101666.53;7396408;19;20026;-68
2022/03/13 01:02:52;;;;;;;10.52;7.55;;;;;;;0.45;35.08;101668.13;7395242;19;20375;-69
2022/03/13 01:05:24;;;;;;;13.38;9.50;;;;;;;0.41;35.15;101662.81;7396315;19;20022;-68
2022/03/13 01:07:52;;;;;;;11.23;8.75;;;;;;;0.36;35.10;101661.78;7394795;19;20031;-68
2022/03/13 01:10:20;;;;;;;13.75;8.27;;;;;;;0.31;35.18;101656.47;7396309;19;20411;-68
2022/03/13 01:12:50;;;;;;;11.15;7.97;;;;;;;0.26;35.37;101658.00;7393935;19;20433;-67
2022/03/13 01:15:19;;;;;;;11.07;8.20;;;;;;;0.23;35.61;101652.72;7394289;19;20022;-68
2022/03/13 01:17:50;;;;;;;13.20;8.55;;;;;;;0.18;35.84;101656.84;7395819;19;20083;-69
2022/03/13 01:20:21;;;;;;;15.15;9.13;;;;;;;0.10;35.82;101656.56;7394190;19;20457;-68
2022/03/13 01:22:49;;;;;;;15.10;8.68;;;;;;;0.07;36.19;101648.72;7395227;19;20086;-69
2022/03/13 01:25:18;;;;;;;13.73;8.65;;;;;;;0.01;36.13;101651.09;7394146;19;20035;-67
2022/03/13 01:27:47;;;;;;;12.45;8.93;;;;;;;-0.07;36.52;101650.81;7394349;19;20066;-67
2022/03/13 01:30:16;;;;;;;13.52;8.88;;;;;;;-0.15;36.47;101645.38;7394401;19;20007;-67
2022/03/13 01:32:48;;;;;;;13.68;9.48;;;;;;;-0.22;36.69;101640.81;7393617;19;20025;-67
2022/03/13 01:35:22;;;;;;;13.45;9.55;;;;;;;-0.30;37.12;101645.69;7395787;19;20025;-67
2022/03/13 01:37:51;;;;;;;15.07;9.93;;;;;;;-0.32;36.89;101644.72;7395738;19;20018;-67
2022/03/13 01:40:21;;;;;;;13.70;9.38;;;;;;;-0.38;37.45;101644.50;7395220;19;20039;-66
2022/03/13 01:42:50;;;;;;;14.05;9.05;;;;;;;-0.43;37.40;101646.03;7394531;19;20078;-67
2022/03/13 01:45:22;;;;;;;17.27;9.43;;;;;;;-0.48;37.82;101642.41;7394768;19;20513;-67
2022/03/13 01:47:50;;;;;;;15.73;9.35;;;;;;;-0.52;37.78;101636.25;7394177;19;20087;-67
2022/03/13 01:50:21;;;;;;;15.30;8.88;;;;;;;-0.57;38.02;101636.09;7393341;19;20082;-67
2022/03/13 01:52:51;;;;;;;12.20;8.60;;;;;;;-0.59;37.93;101637.72;7393570;19;20090;-67
2022/03/13 01:55:19;;;;;;;11.35;8.00;;;;;;;-0.61;38.22;101634.19;7393062;19;20066;-67
2022/03/13 01:57:49;;;;;;;13.95;8.15;;;;;;;-0.63;38.07;101635.84;7394837;19;20066;-66
2022/03/13 02:00:20;;;;;;;10.20;7.50;;;;;;;-0.62;37.92;101636.72;7397142;19;20015;-67
2022/03/13 02:02:49;;;;;;;11.80;8.07;;;;;;;-0.63;37.78;101633.28;7399093;19;20506;-67
2022/03/13 02:05:35;;;;;;;11.98;7.45;;;;;;;-0.61;38.11;101633.31;7402280;19;20037;-68
2022/03/13 02:08:15;;;;;;;11.00;7.07;;;;;;;-0.61;38.11;101635.91;7399511;19;20392;-67
2022/03/13 02:10:43;;;;;;;11.85;7.53;;;;;;;-0.62;37.77;101632.47;7402471;19;20073;-67
2022/03/13 02:13:12;;;;;;;11.73;7.47;;;;;;;-0.64;37.71;101631.50;7400553;19;20022;-68
2022/03/13 02:15:40;;;;;;;10.55;7.70;;;;;;;-0.63;37.74;101635.84;7401564;19;20483;-69
2022/03/13 02:18:09;;;;;;;10.25;7.38;;;;;;;-0.64;37.73;101634.09;7398766;19;20437;-68
2022/03/13 02:20:42;;;;;;;12.13;7.10;;;;;;;-0.65;37.76;101632.31;7399052;19;20045;-68
2022/03/13 02:23:22;;;;;;;11.55;7.20;;;;;;;-0.66;37.68;101633.13;7400288;19;20019;-68
2022/03/13 02:25:52;;;;;;;11.52;7.20;;;;;;;-0.66;37.65;101627.97;7401899;19;20082;-68
2022/03/13 02:28:21;;;;;;;11.10;7.07;;;;;;;-0.67;37.50;101632.28;7399102;19;20074;-68
2022/03/13 02:30:50;;;;;;;9.15;6.28;;;;;;;-0.67;37.53;101631.38;7398389;19;20069;-68
2022/03/13 02:33:21;;;;;;;15.65;7.15;;;;;;;-0.68;37.41;101627.94;7399625;19;20023;-68
2022/03/13 02:35:54;;;;;;;12.07;7.00;;;;;;;-0.70;37.65;101620.97;7401432;19;20022;-68
2022/03/13 02:38:26;;;;;;;12.68;7.10;;;;;;;-0.72;37.68;101627.75;7398663;19;20568;-71
2022/03/13 02:40:54;;;;;;;10.70;7.03;;;;;;;-0.73;37.71;101618.28;7401606;19;20038;-68
2022/03/13 02:43:23;;;;;;;10.35;7.80;;;;;;;-0.74;37.61;101619.09;7398855;19;20521;-68
2022/03/13 02:45:54;;;;;;;11.48;6.93;;;;;;;-0.77;37.54;101618.97;7398261;19;20085;-66
2022/03/13 02:48:23;;;;;;;13.63;7.70;;;;;;;-0.80;37.49;101616.28;7399157;19;20089;-66
2022/03/13 02:50:51;;;;;;;13.23;7.97;;;;;;;-0.80;37.63;101619.72;7400480;19;20511;-66
2022/03/13 02:53:20;;;;;;;12.10;7.60;;;;;;;-0.80;37.50;101624.00;7398966;19;20082;-66
2022/03/13 02:55:51;;;;;;;11.68;7.70;;;;;;;-0.84;37.63;101616.13;7398225;19;20093;-66
2022/03/13 02:58:19;;;;;;;13.88;8.70;;;;;;;-0.87;37.87;101622.91;7400358;19;20531;-66
2022/03/13 03:00:50;;;;;;;11.23;8.43;;;;;;;-0.92;38.25;101629.53;7400466;19;20015;-66
2022/03/13 03:03:19;;;;;;;14.32;9.02;;;;;;;-1.00;38.30;101625.00;7397906;19;20018;-66
2022/03/13 03:05:49;;;;;;;17.23;9.45;;;;;;;-1.06;38.63;101631.56;7400293;19;20015;-66
2022/03/13 03:08:17;;;;;;;14.18;9.43;;;;;;;-1.15;38.89;101624.34;7398328;19;20111;-66
2022/03/13 03:10:54;;;;;;;14.20;9.63;;;;;;;-1.22;39.33;101627.50;7399513;19;20063;-66
2022/03/13 03:13:23;;;;;;;12.88;8.77;;;;;;;-1.29;39.26;101625.50;7396698;19;20235;-66
2022/03/13 03:15:51;;;;;;;19.73;10.98;;;;;;;-1.36;39.25;101626.94;7400012;19;20014;-66
2022/03/13 03:18:19;;;;;;;14.80;9.50;;;;;;;-1.42;39.70;101629.25;7399940;19;20022;-66
2022/03/13 03:20:48;;;;;;;13.68;8.63;;;;;;;-1.46;39.80;101629.97;7397396;19;20023;-66
2022/03/13 03:23:16;;;;;;;12.80;8.18;;;;;;;-1.50;39.58;101636.66;7398196;19;20081;-66
2022/03/13 03:25:44;;;;;;;12.95;8.35;;;;;;;-1.53;39.71;101632.28;7397171;19;20078;-66
2022/03/13 03:28:18;;;;;;;16.38;8.38;;;;;;;-1.56;39.86;101626.13;7397919;19;20078;-66
2022/03/13 03:30:48;;;;;;;11.75;7.78;;;;;;;-1.58;39.98;101622.59;7397655;19;20010;-66
2022/03/13 03:33:16;;;;;;;14.50;9.07;;;;;;;-1.61;40.18;101622.47;7397736;19;20036;-66
2022/03/13 03:35:44;;;;;;;12.02;7.45;;;;;;;-1.64;40.33;101626.66;7399290;19;20024;-67
2022/03/13 03:38:13;;;;;;;14.32;8.52;;;;;;;-1.66;40.18;101624.84;7397002;19;20022;-66
2022/03/13 03:40:41;;;;;;;18.08;8.60;;;;;;;-1.67;40.27;101620.50;7399267;19;20015;-66
2022/03/13 03:43:09;;;;;;;13.93;8.98;;;;;;;-1.68;40.38;101622.22;7397733;19;20041;-66
2022/03/13 03:45:40;;;;;;;12.20;8.40;;;;;;;-1.68;40.36;101619.63;7399844;19;20027;-66
2022/03/13 03:48:08;;;;;;;11.82;8.07;;;;;;;-1.69;40.28;101622.16;7397983;19;20098;-66
2022/03/13 03:50:37;;;;;;;14.02;8.50;;;;;;;-1.69;40.37;101629.88;7396515;19;20014;-66
2022/03/13 03:53:05;;;;;;;14.35;9.23;;;;;;;-1.72;40.48;101620.34;7397188;19;20359;-66
2022/03/13 03:55:33;;;;;;;16.55;8.63;;;;;;;-1.72;40.77;101622.00;7398712;19;20070;-66
2022/03/13 03:58:01;;;;;;;15.38;9.18;;;;;;;-1.74;40.42;101616.81;7397884;19;20082;-67
2022/03/13 04:00:29;;;;;;;13.40;8.43;;;;;;;-1.74;41.00;101619.38;7398292;19;20512;-66
2022/03/13 04:03:02;;;;;;;16.52;8.63;;;;;;;-1.75;40.95;101616.75;7397493;19;20023;-67
2022/03/13 04:05:30;;;;;;;14.80;8.55;;;;;;;-1.77;41.14;101624.38;7396762;19;20018;-66
2022/03/13 04:07:58;;;;;;;14.38;8.68;;;;;;;-1.77;41.01;101624.38;7396226;19;20078;-66
2022/03/13 04:10:26;;;;;;;17.92;9.45;;;;;;;-1.80;41.34;101627.69;7396125;19;20022;-66
2022/03/13 04:12:54;;;;;;;16.92;9.65;;;;;;;-1.80;41.46;101625.13;7396730;19;20425;-66
2022/03/13 04:15:23;;;;;;;12.98;8.15;;;;;;;-1.81;41.71;101623.38;7397682;19;20493;-66
2022/03/13 04:17:51;;;;;;;14.82;8.98;;;;;;;-1.82;41.62;101625.88;7397922;19;20017;-66
2022/03/13 04:20:24;;;;;;;16.08;8.60;;;;;;;-1.83;41.90;101629.28;7395905;19;20041;-66
2022/03/13 04:22:53;;;;;;;14.52;9.90;;;;;;;-1.83;41.87;101630.16;7396039;19;20041;-66
2022/03/13 04:25:21;;;;;;;13.80;8.48;;;;;;;-1.85;41.98;101624.03;7395888;19;20018;-66
2022/03/13 04:27:49;;;;;;;18.90;8.90;;;;;;;-1.85;42.00;101620.59;7396751;19;20014;-66
2022/03/13 04:30:17;;;;;;;14.23;9.63;;;;;;;-1.87;42.19;101625.69;7394966;19;20015;-66
2022/03/13 04:32:47;;;;;;;15.50;9.98;;;;;;;-1.87;42.15;101628.25;7395265;19;20023;-66
2022/03/13 04:35:15;;;;;;;15.93;10.10;;;;;;;-1.89;42.83;101627.31;7397389;19;20091;-67
2022/03/13 04:37:46;;;;;;;15.05;8.95;;;;;;;-1.89;42.29;101618.72;7397270;19;20014;-66
2022/03/13 04:40:14;;;;;;;16.15;9.70;;;;;;;-1.90;42.82;101632.38;7397495;19;20022;-66
2022/03/13 04:42:43;;;;;;;14.25;8.57;;;;;;;-1.92;42.77;101627.19;7395144;19;20035;-66
2022/03/13 04:45:12;;;;;;;14.65;9.63;;;;;;;-1.93;42.62;101632.25;7397070;19;20028;-66
2022/03/13 04:47:40;;;;;;;14.52;9.00;;;;;;;-1.94;42.71;101630.50;7395080;19;20014;-66
2022/03/13 04:50:10;;;;;;;15.15;10.00;;;;;;;-1.95;42.85;101619.31;7396902;19;20014;-66
2022/03/13 04:52:38;;;;;;;14.50;9.00;;;;;;;-1.96;42.92;101630.41;7396203;19;20014;-66
2022/03/13 04:55:10;;;;;;;15.93;9.27;;;;;;;-1.97;43.21;101631.25;7396712;19;20023;-66
2022/03/13 04:57:38;;;;;;;16.48;10.07;;;;;;;-1.99;43.02;101628.59;7396457;19;20433;-66
2022/03/13 05:00:15;;;;;;;15.98;9.45;;;;;;;-1.99;43.34;101632.88;7396634;19;20027;-66
2022/03/13 05:02:43;;;;;;;15.43;9.75;;;;;;;-2.01;43.07;101629.34;7395519;19;20412;-66
2022/03/13 05:05:12;;;;;;;14.32;8.65;;;;;;;-2.02;42.95;101636.19;7396468;19;20026;-66
2022/03/13 05:07:41;;;;;;;15.32;9.43;;;;;;;-2.01;43.11;101639.63;7395917;19;20037;-67
2022/03/13 05:10:15;;;;;;;19.10;9.88;;;;;;;-2.03;43.39;101636.13;7394536;19;20014;-66
2022/03/13 05:12:43;;;;;;;16.38;9.90;;;;;;;-2.04;43.35;101636.94;7395264;19;20019;-66
2022/03/13 05:15:12;;;;;;;15.95;9.15;;;;;;;-2.04;43.23;101639.50;7396111;19;20035;-66
2022/03/13 05:17:40;;;;;;;20.23;10.50;;;;;;;-2.06;43.31;101634.31;7396054;19;20019;-66
2022/03/13 05:20:10;;;;;;;15.07;9.70;;;;;;;-2.08;43.36;101640.19;7395294;19;20479;-66
2022/03/13 05:22:39;;;;;;;14.88;9.82;;;;;;;-2.09;43.93;101634.16;7395203;19;20433;-66
2022/03/13 05:25:08;;;;;;;15.02;9.35;;;;;;;-2.09;43.70;101638.41;7395702;19;20022;-67
2022/03/13 05:27:39;;;;;;;17.65;9.52;;;;;;;-2.10;43.86;101639.22;7395830;19;20023;-67
2022/03/13 05:30:08;;;;;;;15.48;9.20;;;;;;;-2.13;43.74;101640.84;7393699;19;20018;-66
2022/03/13 05:32:37;;;;;;;15.43;9.18;;;;;;;-2.13;43.60;101645.13;7395218;19;20039;-66
2022/03/13 05:35:06;;;;;;;14.63;8.73;;;;;;;-2.14;44.08;101646.81;7391120;19;20023;-67
2022/03/13 05:37:34;;;;;;;16.00;9.65;;;;;;;-2.14;44.08;101646.81;7395472;19;20031;-65
2022/03/13 05:40:03;;;;;;;14.65;9.40;;;;;;;-2.15;44.04;101642.47;7393621;19;20025;-66
2022/03/13 05:42:31;;;;;;;14.23;9.50;;;;;;;-2.16;44.08;101643.28;7393595;19;20361;-66
2022/03/13 05:45:02;;;;;;;21.48;10.80;;;;;;;-2.16;44.05;101639.81;7395073;19;20511;-66
2022/03/13 05:47:30;;;;;;;17.92;10.18;;;;;;;-2.16;44.06;101642.38;7396145;19;20018;-66
2022/03/13 05:50:00;;;;;;;15.73;9.60;;;;;;;-2.18;44.03;101652.59;7395102;19;20019;-66
2022/03/13 05:52:28;;;;;;;17.73;9.55;;;;;;;-2.16;44.09;101651.00;7393989;19;20019;-65
2022/03/13 05:54:56;;;;;;;18.13;9.90;;;;;;;-2.15;43.98;101663.06;7395114;19;20357;-66
2022/03/13 05:57:25;;;;;;;15.00;9.55;;;;;;;-2.16;44.24;101658.72;7394735;19;20026;-66
2022/03/13 05:59:53;;;;;;;17.52;9.70;;;;;;;-2.15;44.00;101652.78;7394613;19;20023;-66
2022/03/13 06:02:23;;;;;;;15.05;8.90;;;;;;;-2.13;44.42;101661.41;7392707;19;20023;-66
2022/03/13 06:04:52;;;;;;;13.45;8.68;;;;;;;-2.12;44.28;101659.75;7394778;19;20031;-65
2022/03/13 06:07:21;;;;;;;14.32;8.30;;;;;;;-2.11;44.39;101664.06;7394109;19;20459;-65
2022/03/13 06:09:49;;;;;;;15.18;9.75;;;;;;;-2.09;44.30;101664.13;7392575;19;20031;-65
2022/03/13 06:12:39;;;;;;;17.58;8.77;;;;;;;-2.07;44.23;101662.50;7393169;19;20021;-66
2022/03/13 06:15:11;;;;;;;15.77;9.38;;;;;;;-2.04;44.31;101660.94;7392146;19;20019;-66
2022/03/13 06:17:44;;;;;;;16.67;9.15;;;;;;;-2.01;44.27;101665.34;7394529;19;20018;-66
2022/03/13 06:20:14;;;;;;;14.82;8.73;;;;;;;-1.99;44.02;101663.72;7394943;19;20015;-66
2022/03/13 06:22:44;;;;;;;14.80;8.75;;;;;;;-1.94;44.14;101672.53;7392371;19;20027;-66
2022/03/13 06:25:13;;;;;;;13.93;8.75;;;;;;;-1.92;43.88;101665.78;7393950;19;20019;-66
2022/03/13 06:27:43;;;;;;;16.33;9.85;;;;;;;-1.89;44.25;101665.88;7393685;19;20022;-66
2022/03/13 06:30:25;;;;;;;14.80;9.48;;;;;;;-1.84;44.18;101679.84;7392996;19;20368;-66
2022/03/13 06:32:56;;;;;;;16.10;9.75;;;;;;;-1.80;44.08;101674.00;7392970;19;20018;-66
2022/03/13 06:35:26;;;;;;;15.80;9.07;;;;;;;-1.75;43.76;101673.34;7391981;19;20031;-67
2022/03/13 06:37:54;;;;;;;17.35;8.98;;;;;;;-1.71;43.76;101672.66;7391668;19;20411;-67
2022/03/13 06:40:24;;;;;;;14.45;8.60;;;;;;;-1.65;43.84;101672.94;7391232;19;20018;-67
2022/03/13 06:42:54;;;;;;;17.38;9.85;;;;;;;-1.66;43.83;101658.28;7392348;19;20039;-67
2022/03/13 06:45:23;;;;;;;16.17;10.35;;;;;;;-1.55;43.76;101661.34;7393867;19;20126;-67
2022/03/13 06:47:52;;;;;;;15.75;9.30;;;;;;;-1.49;43.57;101666.75;7400353;19;20027;-67
2022/03/13 06:50:25;;;;;;;15.52;9.75;;;;;;;-1.44;43.76;101662.66;7400760;19;20018;-67
2022/03/13 06:52:55;;;;;;;13.20;8.65;;;;;;;-1.37;43.46;101668.94;7399629;19;20019;-67
2022/03/13 06:55:25;;;;;;;14.82;8.48;;;;;;;-1.30;43.57;101658.09;7400946;19;20014;-67
2022/03/13 06:57:53;;;;;;;15.60;9.82;;;;;;;-1.22;43.38;101667.00;7397554;19;20510;-67
2022/03/13 07:00:22;;;;;;;15.00;8.77;;;;;;;-1.13;43.05;101656.19;7400374;19;20094;-67
2022/03/13 07:02:51;;;;;;;15.18;9.18;;;;;;;-1.07;42.93;101656.47;7397698;19;20037;-67
2022/03/13 07:05:24;;;;;;;12.95;8.95;;;;;;;-0.97;42.83;101652.56;7400309;19;20022;-67
2022/03/13 07:07:52;;;;;;;15.15;8.43;;;;;;;-0.89;42.81;101651.16;7400612;19;20017;-65
2022/03/13 07:10:21;;;;;;;13.93;8.30;;;;;;;-0.78;42.65;101658.44;7397501;19;20024;-66
2022/03/13 07:12:49;;;;;;;15.40;8.60;;;;;;;-0.69;42.54;101657.09;7398960;19;20022;-66
2022/03/13 07:15:18;;;;;;;15.27;9.05;;;;;;;-0.60;42.43;101660.88;7399746;19;20029;-66
2022/03/13 07:17:47;;;;;;;14.32;8.90;;;;;;;-0.51;42.33;101653.47;7399990;19;20014;-66
2022/03/13 07:20:17;;;;;;;13.25;9.02;;;;;;;-0.40;42.01;101651.31;7397387;19;20357;-66
2022/03/13 07:22:48;;;;;;;15.82;8.93;;;;;;;-0.29;41.93;101644.88;7398839;19;20018;-66
2022/03/13 07:25:17;;;;;;;15.02;9.52;;;;;;;-0.18;41.68;101645.25;7399394;19;20027;-66
2022/03/13 07:27:46;;;;;;;21.73;11.10;;;;;;;-0.07;41.66;101648.22;7399960;19;20014;-66
2022/03/13 07:30:15;;;;;;;12.10;8.73;;;;;;;0.03;41.15;101647.75;7396947;19;20015;-66
2022/03/13 07:32:45;;;;;;;12.40;8.00;;;;;;;0.13;40.95;101651.53;7398447;19;20019;-66
2022/03/13 07:35:14;;;;;;;13.18;7.80;;;;;;;0.24;40.84;101650.22;7398995;19;20472;-67
2022/03/13 07:37:43;;;;;;;13.90;8.45;;;;;;;0.37;40.46;101651.50;7399061;19;20488;-67
2022/03/13 07:40:15;;;;;;;11.90;8.50;;;;;;;0.51;40.05;101656.28;7399373;19;20031;-65
2022/03/13 07:42:44;;;;;;;11.25;7.38;;;;;;;0.62;39.94;101654.91;7398721;19;20014;-66
2022/03/13 07:45:13;;;;;;;12.95;8.35;;;;;;;0.73;39.74;101647.53;7399317;19;20078;-66
2022/03/13 07:47:41;;;;;;;14.68;8.10;;;;;;;0.86;39.54;101648.81;7399190;19;20018;-66
2022/03/13 07:50:11;;;;;;;13.40;8.35;;;;;;;0.96;39.32;101653.44;7397054;19;20018;-66
2022/03/13 07:52:39;;;;;;;13.68;8.45;;;;;;;1.06;39.03;101652.94;7398276;19;20014;-66
2022/03/13 07:55:09;;;;;;;13.80;8.90;;;;;;;1.18;39.02;101655.03;7396623;19;20023;-66
2022/03/13 07:57:39;;;;;;;10.43;7.68;;;;;;;1.29;38.80;101647.63;7394749;19;20018;-67
2022/03/13 08:00:10;;;;;;;13.10;7.28;;;;;;;1.39;38.70;101654.81;7399195;19;20022;-66
2022/03/13 08:02:46;;;;;;;12.27;7.78;;;;;;;1.50;38.45;101651.69;7398098;19;20070;-66
2022/03/13 08:05:15;;;;;;;8.75;6.65;;;;;;;1.61;37.92;101647.69;7396817;19;20045;-66
2022/03/13 08:07:43;;;;;;;11.65;7.35;;;;;;;1.74;37.46;101649.78;7396390;19;20026;-66
2022/03/13 08:10:12;;;;;;;10.10;6.82;;;;;;;1.91;36.99;101654.59;7396150;19;20049;-66
2022/03/13 08:12:42;;;;;;;9.63;6.75;;;;;;;2.05;36.50;101642.91;7397498;19;20022;-66
2022/03/13 08:15:12;;;;;;;11.68;6.90;;;;;;;2.19;36.00;101647.63;7398541;19;20027;-66
2022/03/13 08:17:40;;;;;;;8.85;6.47;;;;;;;2.33;35.59;101643.66;7397825;19;20373;-66
2022/03/13 08:20:10;;;;;;;8.05;6.13;;;;;;;2.48;35.23;101647.47;7397641;19;20503;-66
2022/03/13 08:22:38;;;;;;;10.45;6.30;;;;;;;2.61;34.08;101639.19;7397186;19;20015;-66
2022/03/13 08:25:08;;;;;;;7.70;5.72;;;;;;;2.79;34.11;101643.09;7396067;19;20018;-66
2022/03/13 08:27:36;;;;;;;9.57;5.75;;;;;;;2.92;33.83;101638.25;7395692;19;20019;-67
2022/03/13 08:30:10;;;;;;;10.27;6.93;;;;;;;3.04;32.44;101632.47;7395145;19;20230;-66
2022/03/13 08:32:38;;;;;;;8.82;6.07;;;;;;;3.18;32.69;101629.34;7395318;19;20020;-66
2022/03/13 08:35:08;;;;;;;11.15;6.43;;;;;;;3.33;31.69;101628.81;7397153;19;20014;-66
2022/03/13 08:37:37;;;;;;;10.93;7.13;;;;;;;3.45;32.02;101636.88;7397439;19;20022;-66
2022/03/13 08:40:06;;;;;;;10.40;6.50;;;;;;;3.55;31.90;101636.22;7397200;19;20027;-66
2022/03/13 08:42:35;;;;;;;8.90;5.63;;;;;;;3.67;31.47;101639.91;7396308;19;20189;-66
2022/03/13 08:45:08;;;;;;;8.23;5.63;;;;;;;3.75;31.43;101641.84;7395355;19;20035;-66
2022/03/13 08:47:36;;;;;;;9.52;5.93;;;;;;;3.85;31.58;101637.69;7395009;19;20483;-66
2022/03/13 08:50:05;;;;;;;10.02;6.82;;;;;;;3.94;31.35;101644.78;7395849;19;20045;-66
2022/03/13 08:52:35;;;;;;;9.57;6.38;;;;;;;4.03;30.05;101644.09;7395762;19;20015;-67
2022/03/13 08:55:03;;;;;;;12.23;6.50;;;;;;;4.13;30.84;101645.16;7395021;19;20026;-66
2022/03/13 08:57:31;;;;;;;12.85;6.85;;;;;;;4.20;30.80;101639.25;7396942;19;20037;-66
2022/03/13 08:59:59;;;;;;;11.00;6.47;;;;;;;4.29;30.43;101639.41;7396930;19;20022;-66
2022/03/13 09:02:30;;;;;;;9.75;6.55;;;;;;;4.37;28.96;101634.34;7394565;19;20390;-66
2022/03/13 09:04:58;;;;;;;9.60;5.97;;;;;;;4.45;29.27;101627.56;7396923;19;20022;-66
2022/03/13 09:07:26;;;;;;;12.40;6.65;;;;;;;4.55;30.10;101639.88;7394826;19;20039;-66
2022/03/13 09:09:54;;;;;;;11.18;6.63;;;;;;;4.62;29.78;101635.66;7394990;19;20018;-65
2022/03/13 09:12:22;;;;;;;8.70;5.80;;;;;;;4.68;29.48;101629.69;7394638;19;20023;-66
2022/03/13 09:14:50;;;;;;;8.52;6.22;;;;;;;4.77;29.28;101637.63;7395861;19;20483;-66
2022/03/13 09:17:18;;;;;;;10.10;6.22;;;;;;;4.84;29.32;101628.22;7395756;19;20393;-66
2022/03/13 09:19:49;;;;;;;10.10;5.85;;;;;;;4.93;28.84;101630.97;7394023;19;20026;-65
2022/03/13 09:22:18;;;;;;;9.80;6.22;;;;;;;5.01;28.33;101626.75;7395566;19;20022;-66
2022/03/13 09:24:48;;;;;;;9.20;5.90;;;;;;;5.09;28.98;101631.19;7393991;19;20045;-66
2022/03/13 09:27:17;;;;;;;10.27;6.20;;;;;;;5.16;28.74;101622.66;7395953;19;20014;-66
2022/03/13 09:29:45;;;;;;;10.63;6.28;;;;;;;5.25;28.99;101627.13;7393135;19;20389;-66
2022/03/13 09:32:13;;;;;;;7.28;5.60;;;;;;;5.31;28.99;101628.06;7394038;19;20014;-65
2022/03/13 09:34:42;;;;;;;9.23;6.07;;;;;;;5.38;29.19;101629.03;7395503;19;20035;-66
2022/03/13 09:37:12;;;;;;;9.10;6.35;;;;;;;5.45;29.06;101630.84;7393288;19;20473;-67
2022/03/13 09:39:40;;;;;;;9.63;6.10;;;;;;;5.53;29.24;101631.84;7395400;19;20032;-68
2022/03/13 09:42:09;;;;;;;8.02;6.07;;;;;;;5.64;28.95;101631.13;7394511;19;20026;-68
2022/03/13 09:44:37;;;;;;;9.27;5.78;;;;;;;5.68;28.67;101631.16;7394937;19;20019;-67
2022/03/13 09:47:06;;;;;;;10.85;6.20;;;;;;;5.80;28.76;101637.38;7395873;19;20031;-67
2022/03/13 09:49:34;;;;;;;8.27;5.97;;;;;;;5.89;28.79;101629.69;7393339;19;20037;-66
2022/03/13 09:52:03;;;;;;;9.45;6.28;;;;;;;6.00;28.68;101637.63;7394688;19;20011;-66
2022/03/13 09:54:34;;;;;;;11.40;6.93;;;;;;;6.08;28.59;101635.13;7394970;19;20043;-66
2022/03/13 09:57:04;;;;;;;7.55;5.75;;;;;;;6.16;28.56;101630.88;7392989;19;20512;-66
2022/03/13 09:59:32;;;;;;;10.13;6.80;;;;;;;6.24;28.56;101623.13;7392871;19;20465;-66
2022/03/13 10:02:00;;;;;;;9.00;6.10;;;;;;;6.33;28.27;101624.13;7394572;19;20039;-66
2022/03/13 10:04:28;;;;;;;8.07;6.20;;;;;;;6.43;28.18;101618.97;7392785;19;20037;-67
2022/03/13 10:07:07;;;;;;;10.68;6.72;;;;;;;6.49;27.55;101614.69;7394725;19;20022;-67
2022/03/13 10:09:40;;;;;;;10.35;5.95;;;;;;;6.56;28.02;101610.44;7394291;19;20361;-66
2022/03/13 10:12:11;;;;;;;9.73;5.90;;;;;;;6.66;28.04;101622.69;7392971;19;20422;-66
2022/03/13 10:14:40;;;;;;;7.85;5.43;;;;;;;6.74;27.87;101617.53;7394214;19;20392;-67
2022/03/13 10:17:26;;;;;;;10.43;5.97;;;;;;;6.80;27.46;101614.97;7394196;19;20426;-66
2022/03/13 10:19:55;;;;;;;10.35;6.45;;;;;;;6.87;27.85;101615.00;7392541;19;20082;-67
2022/03/13 10:22:31;;;;;;;10.05;6.22;;;;;;;6.92;27.19;101611.56;7397441;19;20022;-66
2022/03/13 10:25:02;;;;;;;11.57;6.80;;;;;;;6.99;26.67;101613.38;7399342;19;20022;-66
2022/03/13 10:27:32;;;;;;;8.95;5.93;;;;;;;7.08;27.34;101609.94;7401775;19;20035;-67
2022/03/13 10:30:03;;;;;;;8.25;5.70;;;;;;;7.15;27.03;101609.13;7398648;19;20018;-66
2022/03/13 10:32:31;;;;;;;6.70;5.32;;;;;;;7.27;26.82;101610.06;7399438;19;20018;-67
2022/03/13 10:35:01;;;;;;;9.15;5.70;;;;;;;7.34;26.50;101606.59;7401413;19;20018;-68
2022/03/13 10:37:38;;;;;;;8.48;5.30;;;;;;;7.44;26.13;101597.09;7398708;19;20021;-66
2022/03/13 10:40:16;;;;;;;9.50;6.55;;;;;;;7.54;25.18;101591.03;7401054;19;20498;-68
2022/03/13 10:42:48;;;;;;;9.70;6.30;;;;;;;7.63;26.05;101588.50;7399685;19;20471;-67
2022/03/13 10:45:36;;;;;;;9.70;5.90;;;;;;;7.73;25.73;101581.53;7401781;19;20101;-66
2022/03/13 10:48:27;;;;;;;8.15;5.10;;;;;;;7.85;24.93;101593.78;7401689;19;20015;-65
2022/03/13 10:50:56;;;;;;;8.55;5.40;;;;;;;7.92;25.90;101589.44;7398530;19;20018;-66
2022/03/13 10:53:26;;;;;;;8.38;6.25;;;;;;;8.01;25.67;101591.22;7399534;19;20028;-66
2022/03/13 10:56:11;;;;;;;7.75;5.57;;;;;;;8.10;24.94;101583.38;7398657;19;20395;-67
2022/03/13 10:58:45;;;;;;;9.90;5.88;;;;;;;8.19;25.31;101574.69;7401854;19;20018;-67
2022/03/13 11:01:16;;;;;;;7.78;5.68;;;;;;;8.28;25.17;101572.97;7401164;19;20018;-67
2022/03/13 11:03:51;;;;;;;8.32;5.10;;;;;;;8.37;24.80;101581.69;7397849;19;20332;-66
2022/03/13 11:06:20;;;;;;;9.48;5.95;;;;;;;8.43;24.85;101573.88;7401489;19;20023;-68
2022/03/13 11:08:54;;;;;;;8.57;5.40;;;;;;;8.53;24.67;101580.88;7400673;19;20028;-67
2022/03/13 11:11:27;;;;;;;9.75;5.20;;;;;;;8.60;24.06;101585.19;7398222;19;20014;-67
2022/03/13 11:13:59;;;;;;;7.80;5.25;;;;;;;8.70;23.83;101577.38;7397643;19;20015;-67
2022/03/13 11:16:29;;;;;;;6.82;5.10;;;;;;;8.77;23.75;101579.09;7397311;19;20375;-67
2022/03/13 11:18:58;;;;;;;6.10;4.45;;;;;;;8.84;24.17;101583.44;7397710;19;20019;-67
2022/03/13 11:21:28;;;;;;;8.13;5.38;;;;;;;8.91;23.95;101573.84;7397497;19;20018;-67
2022/03/13 11:23:57;;;;;;;7.32;4.82;;;;;;;8.96;23.90;101569.50;7397321;19;20014;-65
2022/03/13 11:26:30;;;;;;;6.78;5.10;;;;;;;9.02;23.79;101566.84;7397216;19;20041;-67
2022/03/13 11:29:00;;;;;;;7.72;5.03;;;;;;;9.08;23.64;101565.97;7397807;19;20015;-66
2022/03/13 11:31:36;;;;;;;7.82;5.28;;;;;;;9.15;23.00;101569.44;7397131;19;20014;-67
2022/03/13 11:34:14;;;;;;;8.45;5.43;;;;;;;9.21;22.88;101557.22;7394589;19;20015;-66